Time;durP1;ratioP1;P1;durP2;ratioP2;P2;SDS_P1;SDS_P2;PMS_P1;PMS_P2;Temp;Humidity;BMP_temperature;BMP_pressure;BME280_temperature;BME280_humidity;BME280_pressure;Samples;Min_cycle;Max_cycle;Signal;HPM_P1;HPM_P2
2022/07/14 00:00:39;;;;;;;6.13;3.50;;;24.50;77.60;;;;;;5043259;28;20441;-87
2022/07/14 00:03:06;;;;;;;4.20;3.40;;;24.50;77.60;;;;;;5049481;28;20450;-84
2022/07/14 00:05:35;;;;;;;5.57;3.43;;;24.50;77.90;;;;;;5035547;28;20515;-82
2022/07/14 00:08:03;;;;;;;6.10;3.30;;;24.30;77.80;;;;;;5017943;28;20539;-83
2022/07/14 00:10:30;;;;;;;5.40;3.50;;;24.20;78.70;;;;;;5035375;28;20484;-84
2022/07/14 00:13:00;;;;;;;3.70;3.40;;;24.10;79.50;;;;;;5033644;28;20472;-83
2022/07/14 00:15:28;;;;;;;4.67;3.43;;;24.10;80.30;;;;;;5032521;28;20553;-82
2022/07/14 00:17:56;;;;;;;4.23;3.80;;;24.20;80.00;;;;;;5038809;28;20543;-82
2022/07/14 00:20:23;;;;;;;5.63;3.70;;;24.30;80.30;;;;;;5041070;28;20485;-85
2022/07/14 00:22:51;;;;;;;6.73;3.43;;;24.20;80.60;;;;;;5036106;28;20458;-85
2022/07/14 00:25:19;;;;;;;4.10;3.63;;;24.10;81.90;;;;;;5039083;28;20442;-86
2022/07/14 00:27:46;;;;;;;6.27;3.40;;;24.00;82.00;;;;;;5043257;28;20469;-83
2022/07/14 00:30:13;;;;;;;3.47;3.07;;;24.10;82.50;;;;;;5039283;28;20487;-86
2022/07/14 00:32:39;;;;;;;5.17;3.47;;;24.00;83.30;;;;;;5035665;28;21045;-86
2022/07/14 00:35:07;;;;;;;6.23;3.00;;;23.90;83.90;;;;;;5040701;28;20454;-85
2022/07/14 00:37:34;;;;;;;5.17;3.07;;;23.80;85.00;;;;;;5034737;28;20487;-84
2022/07/14 00:40:04;;;;;;;4.87;3.13;;;23.70;85.80;;;;;;5040788;28;20450;-86
2022/07/14 00:42:37;;;;;;;5.40;3.20;;;23.70;86.50;;;;;;5054691;28;20440;-88
2022/07/14 00:45:09;;;;;;;4.63;3.13;;;23.80;86.00;;;;;;5050828;28;20458;-87
2022/07/14 00:47:37;;;;;;;3.23;2.93;;;23.80;85.90;;;;;;5051073;28;20450;-86
2022/07/14 00:50:06;;;;;;;5.73;3.80;;;23.80;86.70;;;;;;5043621;28;20445;-88
2022/07/14 00:52:38;;;;;;;6.40;3.67;;;23.70;86.80;;;;;;5051905;28;20505;-85
2022/07/14 00:55:05;;;;;;;6.60;3.27;;;23.70;87.40;;;;;;5059327;28;20433;-85
2022/07/14 00:57:32;;;;;;;6.87;3.23;;;23.50;88.00;;;;;;5048861;28;20565;-85
2022/07/14 00:59:59;;;;;;;5.20;3.00;;;23.50;88.50;;;;;;5045604;28;20509;-85
2022/07/14 01:02:26;;;;;;;6.37;3.17;;;23.40;89.10;;;;;;5040252;28;20449;-84
2022/07/14 01:04:54;;;;;;;7.10;3.40;;;23.40;89.60;;;;;;5040211;28;20488;-84
2022/07/14 01:07:20;;;;;;;5.90;3.40;;;23.30;90.00;;;;;;5038874;28;20492;-84
2022/07/14 01:09:48;;;;;;;4.67;3.40;;;23.30;90.10;;;;;;5035969;28;20503;-83
2022/07/14 01:12:16;;;;;;;5.57;3.90;;;23.30;90.20;;;;;;5025911;28;20462;-83
2022/07/14 01:14:42;;;;;;;4.80;3.53;;;23.50;90.10;;;;;;5037847;28;20453;-84
2022/07/14 01:17:09;;;;;;;10.77;3.50;;;23.50;90.30;;;;;;5039118;28;20493;-85
2022/07/14 01:19:37;;;;;;;4.83;3.83;;;23.50;90.30;;;;;;5045803;28;20475;-83
2022/07/14 01:22:04;;;;;;;4.67;3.53;;;23.30;90.50;;;;;;5030209;28;20446;-85
2022/07/14 01:24:31;;;;;;;5.70;4.10;;;23.30;90.80;;;;;;5043841;28;20469;-83
2022/07/14 01:26:59;;;;;;;4.90;3.60;;;23.10;91.20;;;;;;5031861;28;20476;-86
2022/07/14 01:29:26;;;;;;;6.80;3.33;;;23.20;91.40;;;;;;5043507;28;20484;-85
2022/07/14 01:31:54;;;;;;;5.23;3.67;;;23.20;91.40;;;;;;5035516;28;20449;-85
2022/07/14 01:34:20;;;;;;;5.00;3.80;;;23.20;91.50;;;;;;5032362;28;20440;-83
2022/07/14 01:36:49;;;;;;;6.57;3.10;;;23.30;91.40;;;;;;5049044;28;20482;-83
2022/07/14 01:39:16;;;;;;;4.87;3.90;;;23.30;91.50;;;;;;5046897;28;20461;-85
2022/07/14 01:41:42;;;;;;;5.37;4.10;;;23.20;91.60;;;;;;5053572;28;20445;-85
2022/07/14 01:44:12;;;;;;;5.93;3.30;;;23.20;91.70;;;;;;5039685;28;20461;-84
2022/07/14 01:46:39;;;;;;;6.87;3.60;;;23.20;91.80;;;;;;5072947;22;20508;-86
2022/07/14 01:49:07;;;;;;;5.30;3.13;;;23.20;91.80;;;;;;5039200;28;20498;-84
2022/07/14 01:51:35;;;;;;;5.23;3.53;;;23.20;91.80;;;;;;5057739;28;20444;-84
2022/07/14 01:54:06;;;;;;;7.40;3.90;;;23.20;91.90;;;;;;5052055;28;20548;-85
2022/07/14 01:56:39;;;;;;;5.13;3.30;;;23.10;92.10;;;;;;5060261;28;20485;-83
2022/07/14 01:59:06;;;;;;;9.03;3.97;;;23.10;92.20;;;;;;5057765;28;20487;-85
2022/07/14 02:01:39;;;;;;;6.97;3.70;;;23.10;92.20;;;;;;5054365;28;20446;-87
2022/07/14 02:04:09;;;;;;;9.70;3.90;;;23.10;92.40;;;;;;5060607;28;20448;-85
2022/07/14 02:06:48;;;;;;;8.17;4.10;;;23.00;92.40;;;;;;5052668;28;20569;-84
2022/07/14 02:09:15;;;;;;;5.30;3.60;;;23.10;92.50;;;;;;5056444;28;20456;-84
2022/07/14 02:14:30;;;;;;;4.80;3.83;;;23.00;92.80;;;;;;5056528;28;20436;-85
2022/07/14 02:16:57;;;;;;;6.47;3.37;;;22.80;93.20;;;;;;5062804;28;20460;-84
2022/07/14 02:19:24;;;;;;;6.33;3.80;;;22.80;93.30;;;;;;5053435;28;20464;-84
2022/07/14 02:21:52;;;;;;;6.30;3.87;;;22.70;93.40;;;;;;5046400;28;20467;-84
2022/07/14 02:24:20;;;;;;;6.03;3.50;;;22.70;93.60;;;;;;5040923;28;20996;-84
2022/07/14 02:26:50;;;;;;;10.63;4.27;;;22.70;93.50;;;;;;5032847;28;20516;-84
2022/07/14 02:29:17;;;;;;;6.17;4.03;;;22.70;93.50;;;;;;5042322;28;20465;-85
2022/07/14 02:31:44;;;;;;;8.53;4.10;;;22.70;93.60;;;;;;5043411;28;20469;-83
2022/07/14 02:34:11;;;;;;;5.57;3.93;;;22.90;93.60;;;;;;5041431;28;20495;-84
2022/07/14 02:36:40;;;;;;;6.50;3.70;;;22.70;93.50;;;;;;5039318;28;20833;-84
2022/07/14 02:39:06;;;;;;;7.03;4.00;;;22.70;93.70;;;;;;5038704;28;20514;-84
2022/07/14 02:41:33;;;;;;;6.07;3.40;;;22.70;93.70;;;;;;5046183;28;20526;-85
2022/07/14 02:44:00;;;;;;;8.33;3.97;;;22.60;93.80;;;;;;5039009;28;20532;-85
2022/07/14 02:46:27;;;;;;;9.03;4.20;;;22.50;94.00;;;;;;5039867;28;20835;-83
2022/07/14 02:48:53;;;;;;;8.97;4.20;;;22.50;94.10;;;;;;5041998;28;20465;-85
2022/07/14 02:51:20;;;;;;;8.13;4.27;;;22.60;94.10;;;;;;5036080;28;20562;-84
2022/07/14 02:53:47;;;;;;;6.60;3.53;;;22.60;94.00;;;;;;5034414;28;20448;-85
2022/07/14 02:56:14;;;;;;;6.70;4.37;;;22.50;94.00;;;;;;5033071;28;20480;-83
2022/07/14 02:58:41;;;;;;;6.20;3.63;;;22.40;94.20;;;;;;5044255;28;20472;-87
2022/07/14 03:01:08;;;;;;;6.60;3.40;;;22.50;94.30;;;;;;5052140;28;20460;-85
2022/07/14 03:03:37;;;;;;;7.70;4.40;;;22.50;94.30;;;;;;5046547;28;20453;-84
2022/07/14 03:06:12;;;;;;;13.03;3.97;;;22.40;94.50;;;;;;5048544;28;20515;-84
2022/07/14 03:08:39;;;;;;;8.70;3.60;;;22.40;94.50;;;;;;5033493;28;20481;-86
2022/07/14 03:11:06;;;;;;;6.00;4.20;;;22.40;94.60;;;;;;5038849;28;20460;-85
2022/07/14 03:13:35;;;;;;;8.03;4.20;;;22.40;94.80;;;;;;5034668;28;20485;-85
2022/07/14 03:16:03;;;;;;;5.33;3.60;;;22.40;94.80;;;;;;5040036;28;20591;-86
2022/07/14 03:18:30;;;;;;;6.70;3.73;;;22.30;94.90;;;;;;5038860;28;20476;-85
2022/07/14 03:20:56;;;;;;;8.07;3.50;;;22.30;95.00;;;;;;5043042;28;20445;-85
2022/07/14 03:23:23;;;;;;;5.13;3.70;;;22.30;95.10;;;;;;5046144;28;20445;-86
2022/07/14 03:25:50;;;;;;;7.80;3.83;;;22.20;95.20;;;;;;5034083;28;20505;-84
2022/07/14 03:28:17;;;;;;;8.03;3.80;;;22.20;95.30;;;;;;5041266;28;20483;-84
2022/07/14 03:30:44;;;;;;;6.10;4.00;;;22.20;95.30;;;;;;5043004;28;20443;-86
2022/07/14 03:33:10;;;;;;;7.67;4.47;;;22.20;95.30;;;;;;5037483;28;20453;-85
2022/07/14 03:35:39;;;;;;;6.50;4.60;;;22.20;95.20;;;;;;5038046;28;20460;-85
2022/07/14 03:38:06;;;;;;;6.67;4.00;;;22.20;95.30;;;;;;5028869;28;20478;-85
2022/07/14 03:40:53;;;;;;;5.30;3.97;;;22.20;95.40;;;;;;5038836;28;20450;-85
2022/07/14 03:43:20;;;;;;;6.90;3.77;;;22.20;95.60;;;;;;5038344;28;20453;-83
2022/07/14 03:45:46;;;;;;;6.47;3.77;;;22.20;95.60;;;;;;5054711;28;20941;-84
2022/07/14 03:48:13;;;;;;;4.60;3.60;;;22.30;95.50;;;;;;5043553;28;20469;-84
2022/07/14 03:50:41;;;;;;;6.10;4.10;;;22.20;95.50;;;;;;5046303;28;20459;-86
2022/07/14 03:53:08;;;;;;;11.33;3.80;;;22.10;95.80;;;;;;5044962;28;20982;-85
2022/07/14 03:55:35;;;;;;;9.17;4.20;;;22.10;96.10;;;;;;5043009;28;20457;-86
2022/07/14 03:58:02;;;;;;;7.33;3.97;;;21.90;96.40;;;;;;5045326;28;20496;-84
2022/07/14 04:00:29;;;;;;;8.13;3.90;;;21.90;96.60;;;;;;5047636;28;20453;-85
2022/07/14 04:02:56;;;;;;;6.20;4.30;;;21.80;96.80;;;;;;5042778;28;20476;-85
2022/07/14 04:05:23;;;;;;;6.83;4.07;;;21.70;97.10;;;;;;5039372;28;20464;-86
2022/07/14 04:07:50;;;;;;;8.47;3.77;;;21.70;97.20;;;;;;5040501;28;20496;-85
2022/07/14 04:10:17;;;;;;;8.73;4.70;;;21.80;97.20;;;;;;5041658;28;20456;-84
2022/07/14 04:12:44;;;;;;;9.43;3.80;;;21.80;97.10;;;;;;5049807;28;20433;-86
2022/07/14 04:15:11;;;;;;;8.43;4.43;;;21.70;97.20;;;;;;5058345;28;20456;-85
2022/07/14 04:17:38;;;;;;;7.70;3.70;;;21.70;97.20;;;;;;5058662;28;20488;-86
2022/07/14 04:20:05;;;;;;;7.53;4.30;;;21.70;97.30;;;;;;5043731;28;20457;-83
2022/07/14 04:22:32;;;;;;;6.83;4.07;;;21.60;97.40;;;;;;5038027;28;20520;-84
2022/07/14 04:25:05;;;;;;;9.33;4.17;;;21.50;97.40;;;;;;5039714;28;20479;-84
2022/07/14 04:27:32;;;;;;;7.90;4.20;;;21.50;97.60;;;;;;5044500;28;20452;-84
2022/07/14 04:29:59;;;;;;;5.50;3.80;;;21.50;97.90;;;;;;5044724;28;20449;-85
2022/07/14 04:32:27;;;;;;;8.40;3.90;;;21.50;97.80;;;;;;5034706;28;20446;-88
2022/07/14 04:34:54;;;;;;;8.07;4.57;;;21.50;97.80;;;;;;5049260;28;20446;-84
2022/07/14 04:37:20;;;;;;;7.37;4.20;;;21.40;97.80;;;;;;5040631;28;20488;-84
2022/07/14 04:39:47;;;;;;;6.10;4.13;;;21.30;97.90;;;;;;5032569;28;20469;-87
2022/07/14 04:42:14;;;;;;;7.20;4.30;;;21.40;98.20;;;;;;5042221;28;20490;-85
2022/07/14 04:44:41;;;;;;;10.47;4.67;;;21.30;98.20;;;;;;5045223;28;20454;-83
2022/07/14 04:47:08;;;;;;;7.10;3.87;;;21.30;98.30;;;;;;5047136;28;20455;-88
2022/07/14 04:52:23;;;;;;;4.83;3.50;;;21.40;98.00;;;;;;5047137;28;20461;-86
2022/07/14 04:54:50;;;;;;;9.10;5.47;;;21.50;97.90;;;;;;5056065;28;20454;-85
2022/07/14 04:57:19;;;;;;;9.77;4.90;;;21.40;97.80;;;;;;5055877;28;20512;-84
2022/07/14 04:59:46;;;;;;;4.73;4.00;;;21.30;98.00;;;;;;5051640;28;20461;-84
2022/07/14 05:02:13;;;;;;;8.53;3.80;;;21.30;98.10;;;;;;5051026;28;20934;-85
2022/07/14 05:04:40;;;;;;;7.70;3.97;;;21.40;98.10;;;;;;5043265;28;20893;-85
2022/07/14 05:07:07;;;;;;;7.43;3.87;;;21.40;98.10;;;;;;5051493;28;20491;-85
2022/07/14 05:09:34;;;;;;;8.50;4.10;;;21.30;98.00;;;;;;5043129;28;20477;-85
2022/07/14 05:12:02;;;;;;;8.73;4.13;;;21.30;98.00;;;;;;5047851;28;20829;-85
2022/07/14 05:14:32;;;;;;;7.20;3.97;;;21.20;98.10;;;;;;5059086;28;20448;-85
2022/07/14 05:16:58;;;;;;;10.37;6.00;;;21.20;98.20;;;;;;5059565;28;20461;-86
2022/07/14 05:19:42;;;;;;;8.60;4.00;;;21.20;98.20;;;;;;5054074;28;20446;-85
2022/07/14 05:22:09;;;;;;;9.07;4.10;;;21.30;98.20;;;;;;5058063;28;20441;-84
2022/07/14 05:24:35;;;;;;;12.47;4.67;;;21.30;98.10;;;;;;5060914;28;20437;-87
2022/07/14 05:27:03;;;;;;;12.47;5.13;;;21.30;98.10;;;;;;5053935;28;20519;-87
2022/07/14 05:29:29;;;;;;;13.70;5.10;;;21.30;98.10;;;;;;5057038;28;20446;-88
2022/07/14 05:31:59;;;;;;;9.57;4.73;;;21.30;98.20;;;;;;5057489;28;20456;-84
2022/07/14 05:34:32;;;;;;;9.80;4.63;;;21.20;98.30;;;;;;5042700;28;20973;-84
2022/07/14 05:36:59;;;;;;;9.63;4.30;;;21.20;98.40;;;;;;5043013;28;21052;-85
2022/07/14 05:39:26;;;;;;;11.23;4.57;;;21.30;98.30;;;;;;5047755;28;20477;-85
2022/07/14 05:41:52;;;;;;;12.43;4.17;;;21.30;98.20;;;;;;5058145;28;20442;-84
2022/07/14 05:44:19;;;;;;;12.63;4.50;;;21.30;98.30;;;;;;5042638;28;20464;-83
2022/07/14 05:46:45;;;;;;;9.90;4.50;;;21.20;98.20;;;;;;5040202;28;20461;-86
2022/07/14 05:49:12;;;;;;;6.23;4.00;;;21.30;98.30;;;;;;5042972;28;20470;-85
2022/07/14 05:51:39;;;;;;;7.97;4.30;;;21.30;98.30;;;;;;5039116;28;20441;-85
2022/07/14 05:54:05;;;;;;;8.07;4.00;;;21.30;98.20;;;;;;5038389;28;20468;-86
2022/07/14 05:56:32;;;;;;;8.33;4.40;;;21.50;98.30;;;;;;5042276;28;20452;-84
2022/07/14 05:58:59;;;;;;;9.67;4.70;;;21.50;97.90;;;;;;5041638;28;20554;-83
2022/07/14 06:01:41;;;;;;;12.13;4.60;;;21.40;98.00;;;;;;5035110;28;20477;-84
2022/07/14 06:04:07;;;;;;;9.93;4.33;;;21.30;98.10;;;;;;5035416;28;20495;-86
2022/07/14 06:06:34;;;;;;;8.90;4.67;;;21.30;98.40;;;;;;5039680;28;21276;-87
2022/07/14 06:09:01;;;;;;;8.60;5.00;;;21.30;98.50;;;;;;5038185;28;20477;-85
2022/07/14 06:11:27;;;;;;;7.63;4.17;;;21.30;98.30;;;;;;5041524;28;20461;-84
2022/07/14 06:13:54;;;;;;;9.07;4.63;;;21.40;98.30;;;;;;5037153;28;20444;-84
2022/07/14 06:16:21;;;;;;;9.40;3.53;;;21.50;98.30;;;;;;5038276;28;20476;-85
2022/07/14 06:18:47;;;;;;;12.40;5.67;;;21.50;98.10;;;;;;5033242;28;20490;-83
2022/07/14 06:21:14;;;;;;;5.43;3.73;;;21.50;97.90;;;;;;5042978;28;20527;-85
2022/07/14 06:23:41;;;;;;;11.63;5.23;;;21.50;97.80;;;;;;5039507;28;20476;-85
2022/07/14 06:26:11;;;;;;;10.23;5.33;;;21.50;98.10;;;;;;5038660;28;20442;-86
2022/07/14 06:28:38;;;;;;;13.30;4.63;;;21.50;98.30;;;;;;5034605;28;20478;-84
2022/07/14 06:31:05;;;;;;;10.03;5.20;;;21.40;98.40;;;;;;5035575;28;20465;-85
2022/07/14 06:33:32;;;;;;;8.00;4.30;;;21.50;98.60;;;;;;5039258;28;20469;-86
2022/07/14 06:35:59;;;;;;;12.20;4.50;;;21.50;98.60;;;;;;5041173;28;20449;-85
2022/07/14 06:38:29;;;;;;;8.07;4.57;;;21.50;98.50;;;;;;5054929;28;20510;-86
2022/07/14 06:40:56;;;;;;;13.63;4.23;;;21.50;98.70;;;;;;5050792;28;20552;-85
2022/07/14 06:43:23;;;;;;;10.53;5.60;;;21.50;98.10;;;;;;5042603;28;20451;-84
2022/07/14 06:45:50;;;;;;;7.70;4.40;;;21.30;98.20;;;;;;5043837;28;20457;-85
2022/07/14 06:48:17;;;;;;;7.27;3.67;;;21.40;98.40;;;;;;5034134;28;20486;-83
2022/07/14 06:50:44;;;;;;;8.67;4.27;;;21.40;98.20;;;;;;5036399;28;20484;-83
2022/07/14 06:53:11;;;;;;;9.63;4.60;;;21.40;98.10;;;;;;5033559;28;20445;-85
2022/07/14 06:55:38;;;;;;;8.27;4.13;;;21.50;97.90;;;;;;5035360;28;20453;-85
2022/07/14 06:58:05;;;;;;;11.40;4.90;;;21.60;97.90;;;;;;5039495;28;20651;-85
2022/07/14 07:00:31;;;;;;;8.10;4.57;;;21.90;97.40;;;;;;5039158;28;20453;-83
2022/07/14 07:02:58;;;;;;;7.53;4.33;;;21.90;97.10;;;;;;5045785;28;20465;-84
2022/07/14 07:08:13;;;;;;;7.80;3.70;;;21.90;96.80;;;;;;5046635;28;20473;-85
2022/07/14 07:10:42;;;;;;;11.73;5.40;;;21.70;96.80;;;;;;5039522;28;20476;-85
2022/07/14 07:13:09;;;;;;;5.40;3.67;;;21.60;97.10;;;;;;5037670;28;20526;-85
2022/07/14 07:15:38;;;;;;;9.70;4.20;;;21.60;97.30;;;;;;5044142;28;20477;-84
2022/07/14 07:18:06;;;;;;;7.30;4.60;;;21.70;97.40;;;;;;5039669;28;20482;-84
2022/07/14 07:20:35;;;;;;;8.67;4.60;;;21.70;97.00;;;;;;5039502;28;20468;-83
2022/07/14 07:23:05;;;;;;;10.87;4.80;;;21.70;96.90;;;;;;5048872;28;20448;-89
2022/07/14 07:25:32;;;;;;;10.37;4.40;;;21.60;97.10;;;;;;5048124;28;20448;-87
2022/07/14 07:28:00;;;;;;;11.73;5.23;;;21.80;97.40;;;;;;5047882;28;20583;-85
2022/07/14 07:30:27;;;;;;;14.30;5.60;;;22.10;96.50;;;;;;5030702;28;20546;-84
2022/07/14 07:32:54;;;;;;;13.33;5.23;;;22.00;96.30;;;;;;5037616;28;20458;-83
2022/07/14 07:35:21;;;;;;;8.97;4.40;;;22.00;96.40;;;;;;5038396;28;20470;-82
2022/07/14 07:37:48;;;;;;;8.60;5.30;;;22.40;95.90;;;;;;5031785;28;20481;-84
2022/07/14 07:40:16;;;;;;;7.70;5.33;;;22.20;95.70;;;;;;5050913;28;20441;-85
2022/07/14 07:42:43;;;;;;;11.30;4.13;;;22.20;95.90;;;;;;5038864;28;20453;-85
2022/07/14 07:45:11;;;;;;;14.20;4.67;;;22.20;95.80;;;;;;5039265;28;20462;-84
2022/07/14 07:47:38;;;;;;;12.37;4.70;;;22.20;95.80;;;;;;5035159;28;20484;-84
2022/07/14 07:50:05;;;;;;;8.87;4.20;;;22.20;95.70;;;;;;5045817;28;20463;-83
2022/07/14 07:52:33;;;;;;;7.40;3.90;;;22.20;95.70;;;;;;5033341;28;20453;-84
2022/07/14 07:55:00;;;;;;;10.40;5.20;;;22.40;95.50;;;;;;5040474;28;20450;-83
2022/07/14 07:57:43;;;;;;;11.73;4.47;;;22.50;95.20;;;;;;5046111;28;20473;-84
2022/07/14 08:00:10;;;;;;;7.50;4.10;;;23.00;94.00;;;;;;5043920;28;20457;-84
2022/07/14 08:02:45;;;;;;;7.33;3.93;;;23.00;93.70;;;;;;5050778;28;20508;-83
2022/07/14 08:05:12;;;;;;;8.13;3.67;;;23.00;93.90;;;;;;5032655;28;20468;-85
2022/07/14 08:07:59;;;;;;;10.40;3.97;;;23.00;93.00;;;;;;5048939;28;20456;-83
2022/07/14 08:10:27;;;;;;;8.87;4.03;;;23.10;93.10;;;;;;5042192;28;20449;-85
2022/07/14 08:12:54;;;;;;;11.07;3.57;;;23.30;92.50;;;;;;5042690;28;20824;-85
2022/07/14 08:15:21;;;;;;;6.37;3.07;;;23.10;92.00;;;;;;5041860;28;20461;-85
2022/07/14 08:17:47;;;;;;;10.00;3.50;;;23.10;91.90;;;;;;5031135;28;20503;-86
2022/07/14 08:20:14;;;;;;;5.50;3.10;;;23.10;91.90;;;;;;5036883;28;20445;-84
2022/07/14 08:22:41;;;;;;;4.33;3.30;;;23.00;91.50;;;;;;5035859;28;20449;-84
2022/07/14 08:25:08;;;;;;;6.10;2.97;;;23.00;91.30;;;;;;5035189;28;20445;-84
2022/07/14 08:27:37;;;;;;;2.97;2.10;;;22.90;91.30;;;;;;5040044;28;20484;-86
2022/07/14 08:30:05;;;;;;;6.97;3.40;;;23.10;90.00;;;;;;5041730;28;20927;-84
2022/07/14 08:32:42;;;;;;;6.10;2.30;;;23.10;87.40;;;;;;5047172;28;20467;-83
2022/07/14 08:35:11;;;;;;;5.57;3.10;;;23.40;85.90;;;;;;5039240;28;20552;-85
2022/07/14 08:37:39;;;;;;;5.40;2.43;;;23.70;85.40;;;;;;5035773;28;20498;-84
2022/07/14 08:40:08;;;;;;;5.93;2.03;;;23.90;84.90;;;;;;5039268;28;20449;-88
2022/07/14 08:42:36;;;;;;;5.23;2.67;;;24.60;81.40;;;;;;5031317;28;20899;-86
2022/07/14 08:45:08;;;;;;;6.33;2.57;;;24.50;80.50;;;;;;5049122;28;20444;-85
2022/07/14 08:47:35;;;;;;;5.00;2.60;;;24.70;79.20;;;;;;5037870;28;20456;-86
2022/07/14 08:50:07;;;;;;;5.70;2.10;;;25.20;77.10;;;;;;5044181;28;20795;-86
2022/07/14 08:52:34;;;;;;;8.60;2.10;;;25.50;71.80;;;;;;5038849;28;20934;-84
2022/07/14 08:55:01;;;;;;;5.87;2.47;;;25.70;68.50;;;;;;5046843;28;20951;-84
2022/07/14 08:57:28;;;;;;;7.40;2.57;;;25.80;65.50;;;;;;5039085;28;20996;-86
2022/07/14 08:59:54;;;;;;;5.40;2.40;;;25.90;64.10;;;;;;5042493;28;20448;-83
2022/07/14 09:02:22;;;;;;;4.97;2.23;;;26.00;62.80;;;;;;5041099;28;20450;-84
2022/07/14 09:04:48;;;;;;;7.27;3.00;;;25.80;64.40;;;;;;5041203;28;20475;-84
2022/07/14 09:07:31;;;;;;;5.67;2.67;;;26.30;66.70;;;;;;5048304;28;20465;-82
2022/07/14 09:10:17;;;;;;;11.03;2.40;;;26.50;65.10;;;;;;5033747;28;20445;-84
2022/07/14 09:12:47;;;;;;;4.93;2.47;;;26.50;63.80;;;;;;5042779;28;20446;-86
2022/07/14 09:18:04;;;;;;;2.90;1.50;;;26.60;59.60;;;;;;5047676;28;20488;-85
2022/07/14 09:20:32;;;;;;;3.33;1.80;;;27.50;55.30;;;;;;5046908;28;20460;-86
2022/07/14 09:23:01;;;;;;;10.00;2.73;;;27.70;55.80;;;;;;5039985;28;20453;-85
2022/07/14 09:25:37;;;;;;;5.53;2.90;;;27.40;56.60;;;;;;5042090;28;20946;-86
2022/07/14 09:28:05;;;;;;;5.13;2.40;;;28.20;54.20;;;;;;5036073;28;21025;-85
2022/07/14 09:30:33;;;;;;;6.23;2.17;;;29.10;52.40;;;;;;5049704;28;20603;-85
2022/07/14 09:33:02;;;;;;;5.53;2.10;;;29.80;51.40;;;;;;5033483;28;20458;-84
2022/07/14 09:35:36;;;;;;;4.03;1.80;;;30.00;50.20;;;;;;5038815;28;20567;-86
2022/07/14 09:38:17;;;;;;;4.07;2.00;;;29.30;50.50;;;;;;5044459;28;20567;-85
2022/07/14 09:40:45;;;;;;;3.97;2.20;;;28.90;49.70;;;;;;5046322;28;20456;-86
2022/07/14 09:43:15;;;;;;;3.27;1.83;;;29.20;49.00;;;;;;5047102;28;20509;-87
2022/07/14 09:45:51;;;;;;;6.43;2.03;;;28.40;49.50;;;;;;5047115;28;20532;-85
2022/07/14 09:48:21;;;;;;;3.63;1.50;;;28.30;49.80;;;;;;5051098;28;20476;-85
2022/07/14 09:50:54;;;;;;;2.07;1.40;;;28.00;48.00;;;;;;5047983;28;20448;-86
2022/07/14 09:53:27;;;;;;;4.10;2.00;;;27.80;47.00;;;;;;5038473;28;20932;-85
2022/07/14 09:56:03;;;;;;;4.10;2.00;;;28.20;46.70;;;;;;5041133;28;20492;-86
2022/07/14 09:58:40;;;;;;;5.07;2.20;;;28.00;48.10;;;;;;5029088;28;21065;-85
2022/07/14 10:01:09;;;;;;;5.60;2.13;;;27.30;49.20;;;;;;5043182;28;20468;-85
2022/07/14 10:03:42;;;;;;;4.17;1.73;;;27.40;49.60;;;;;;5039070;28;20544;-84
2022/07/14 10:06:11;;;;;;;2.63;1.80;;;27.10;50.10;;;;;;5038643;28;20541;-84
2022/07/14 10:08:59;;;;;;;5.37;2.60;;;27.00;50.00;;;;;;5055044;28;20468;-86
2022/07/14 10:11:29;;;;;;;6.33;1.90;;;26.80;51.90;;;;;;5055944;28;20464;-85
2022/07/14 10:13:57;;;;;;;5.13;2.20;;;27.00;50.50;;;;;;5047601;28;20436;-85
2022/07/14 10:16:29;;;;;;;4.50;2.13;;;27.40;48.30;;;;;;5043485;28;20510;-83
2022/07/14 10:18:56;;;;;;;5.50;2.10;;;27.40;46.70;;;;;;5040282;28;20493;-87
2022/07/14 10:21:25;;;;;;;3.43;1.80;;;27.10;47.90;;;;;;5051009;28;20449;-84
2022/07/14 10:23:52;;;;;;;7.37;2.30;;;27.10;48.50;;;;;;5046453;28;20465;-83
2022/07/14 10:26:19;;;;;;;5.73;3.43;;;27.00;49.40;;;;;;5049040;28;20449;-85
2022/07/14 10:28:46;;;;;;;5.47;2.17;;;26.90;49.80;;;;;;5049044;28;20465;-88
2022/07/14 10:31:34;;;;;;;5.37;1.83;;;27.00;50.10;;;;;;5062306;28;20437;-86
2022/07/14 10:34:28;;;;;;;4.60;2.30;;;27.20;50.00;;;;;;5040849;28;20442;-86
2022/07/14 10:37:17;;;;;;;4.23;2.13;;;27.80;49.70;;;;;;5051280;28;20473;-86
2022/07/14 10:39:54;;;;;;;4.57;2.50;;;27.20;50.50;;;;;;5024261;28;20469;-85
2022/07/14 10:42:52;;;;;;;2.10;1.50;;;27.10;50.70;;;;;;5051119;28;20465;-85
2022/07/14 10:45:20;;;;;;;4.27;2.30;;;27.90;46.70;;;;;;5053137;28;20514;-86
2022/07/14 10:47:52;;;;;;;4.50;2.40;;;27.80;45.00;;;;;;5043738;28;20453;-84
2022/07/14 10:50:52;;;;;;;2.53;1.30;;;29.40;43.00;;;;;;5037214;28;20916;-85
2022/07/14 10:53:28;;;;;;;6.23;2.30;;;29.70;42.10;;;;;;5039141;28;20452;-85
2022/07/14 10:56:26;;;;;;;5.40;1.50;;;30.30;40.00;;;;;;5045029;28;20445;-86
2022/07/14 10:59:39;;;;;;;2.43;1.20;;;30.80;38.80;;;;;;5043838;28;20492;-83
2022/07/14 11:02:26;;;;;;;4.50;2.10;;;30.70;37.70;;;;;;5036057;28;20460;-83
2022/07/14 11:05:11;;;;;;;6.07;4.60;;;31.00;38.20;;;;;;5059033;28;20467;-86
2022/07/14 11:07:46;;;;;;;2.90;2.17;;;30.90;37.80;;;;;;5043698;28;20501;-83
2022/07/14 11:10:19;;;;;;;2.27;1.50;;;31.60;36.40;;;;;;5043989;28;20446;-85
2022/07/14 11:13:04;;;;;;;5.30;2.10;;;31.20;37.30;;;;;;5043801;28;20422;-84
2022/07/14 11:15:53;;;;;;;4.83;2.40;;;31.10;36.80;;;;;;5041128;28;20545;-82
2022/07/14 11:18:35;;;;;;;3.87;1.73;;;30.50;38.10;;;;;;5126031;22;20484;-85
2022/07/14 11:21:23;;;;;;;2.70;1.73;;;31.30;37.50;;;;;;5065625;28;20456;-85
2022/07/14 11:23:50;;;;;;;2.20;1.60;;;30.80;37.70;;;;;;5061750;28;20467;-85
2022/07/14 11:26:41;;;;;;;4.03;2.10;;;30.50;38.80;;;;;;5068135;28;20437;-84
2022/07/14 11:29:31;;;;;;;4.83;2.10;;;30.70;38.30;;;;;;5052472;28;20465;-85
2022/07/14 11:31:58;;;;;;;6.57;2.07;;;31.00;39.40;;;;;;5041624;28;20441;-85
2022/07/14 11:37:20;;;;;;;4.57;1.80;;;32.60;36.70;;;;;;5032398;28;20496;-84
2022/07/14 11:40:48;;;;;;;6.60;2.10;;;32.70;35.50;;;;;;5038881;28;20472;-84
2022/07/14 11:43:30;;;;;;;4.90;1.77;;;32.10;36.10;;;;;;5038236;28;20986;-85
2022/07/14 11:46:03;;;;;;;3.77;1.90;;;31.30;36.30;;;;;;5036984;28;20468;-82
2022/07/14 11:48:32;;;;;;;4.53;2.10;;;30.80;36.90;;;;;;5033740;28;20594;-83
2022/07/14 11:51:06;;;;;;;4.13;1.83;;;30.70;37.00;;;;;;5033100;28;20986;-86
2022/07/14 11:53:34;;;;;;;3.40;1.80;;;30.60;37.40;;;;;;5031853;28;20453;-86
2022/07/14 11:56:02;;;;;;;4.40;1.80;;;32.40;35.70;;;;;;5042933;28;20471;-86
2022/07/14 11:58:32;;;;;;;4.30;2.10;;;32.40;35.00;;;;;;5030016;28;20580;-85
2022/07/14 12:01:00;;;;;;;3.80;2.43;;;31.50;35.90;;;;;;5034098;28;20477;-85
2022/07/14 12:03:27;;;;;;;7.07;2.37;;;31.20;36.30;;;;;;5038536;28;20660;-84
2022/07/14 12:05:57;;;;;;;4.57;1.60;;;32.30;35.30;;;;;;5042466;28;20452;-84
2022/07/14 12:08:29;;;;;;;6.60;2.40;;;31.70;35.10;;;;;;5031884;28;20558;-83
2022/07/14 12:11:08;;;;;;;5.33;1.80;;;31.30;35.60;;;;;;5038622;28;20519;-86
2022/07/14 12:13:51;;;;;;;3.93;2.07;;;30.90;36.70;;;;;;5043911;28;20505;-84
2022/07/14 12:16:21;;;;;;;3.50;2.07;;;31.00;36.60;;;;;;5040881;28;20451;-85
2022/07/14 12:18:55;;;;;;;5.40;2.13;;;30.50;36.70;;;;;;5043060;28;20619;-84
2022/07/14 12:21:33;;;;;;;3.90;2.17;;;30.90;37.00;;;;;;5040767;28;20464;-88
2022/07/14 12:24:01;;;;;;;3.30;2.00;;;30.90;36.80;;;;;;5034182;28;20449;-85
2022/07/14 12:26:29;;;;;;;3.23;1.83;;;31.70;36.30;;;;;;5030157;28;20462;-85
2022/07/14 12:29:00;;;;;;;4.80;1.77;;;31.20;36.20;;;;;;5038910;28;20647;-86
2022/07/14 12:31:27;;;;;;;3.57;2.10;;;31.10;36.70;;;;;;5056535;28;20496;-86
2022/07/14 12:33:58;;;;;;;4.33;2.70;;;31.40;36.20;;;;;;5040620;28;20461;-85
2022/07/14 12:36:27;;;;;;;3.80;2.80;;;31.50;36.10;;;;;;5040197;28;20686;-85
2022/07/14 12:38:54;;;;;;;4.30;2.50;;;31.30;36.40;;;;;;5038113;28;20853;-83
2022/07/14 12:41:24;;;;;;;3.70;2.13;;;32.40;35.20;;;;;;5038748;28;20457;-85
2022/07/14 12:43:52;;;;;;;5.93;2.10;;;32.10;35.40;;;;;;5035988;28;20461;-84
2022/07/14 12:46:23;;;;;;;5.00;2.50;;;31.70;35.90;;;;;;5038571;28;20998;-83
2022/07/14 12:48:50;;;;;;;3.30;2.10;;;31.20;36.60;;;;;;5037604;28;20469;-85
2022/07/14 12:51:43;;;;;;;3.60;2.23;;;31.60;36.40;;;;;;5037721;28;20453;-85
2022/07/14 12:54:15;;;;;;;4.63;2.53;;;31.20;36.40;;;;;;5039380;28;20473;-86
2022/07/14 12:56:54;;;;;;;4.80;2.03;;;30.40;37.40;;;;;;5038032;28;20468;-84
2022/07/14 12:59:26;;;;;;;4.20;2.50;;;30.00;38.40;;;;;;5039342;28;20585;-85
2022/07/14 13:01:59;;;;;;;9.33;2.47;;;30.30;39.00;;;;;;5041763;28;20436;-83
2022/07/14 13:05:03;;;;;;;4.87;2.10;;;30.50;38.60;;;;;;5050090;28;20524;-84
2022/07/14 13:07:38;;;;;;;4.20;2.53;;;30.60;38.30;;;;;;5032276;28;20446;-84
2022/07/14 13:10:22;;;;;;;4.07;2.27;;;30.20;38.40;;;;;;5044400;28;20469;-82
2022/07/14 13:12:55;;;;;;;5.00;3.00;;;30.10;39.70;;;;;;5056435;28;20439;-83
2022/07/14 13:15:31;;;;;;;3.40;2.17;;;29.90;39.60;;;;;;5024586;28;20472;-86